Suula — OJKZ — position and weather

sailwx.info

Track history (hours):
 
Tides and Currents Weather Stations Pressure Air Temp Water Temp Dewpoint Dewpoint Depression Visibility Wind Speed Wind Dir Waves Ship Positions

Suula

Last reported at 2014-Oct-01 13:33 UTC. Time now 2014-Oct-01 14:20 UTC.
Position N 54°24' E 018°43'.

Length 140 m; draft 6.5 m.

Type: Tanker. MMSI: 230956996.

Date/timePositionNaut miles runAvg speedWind from/ knotsBaromVisibWave heightAir tempDewpointWater temp
2014-Oct-01 13:33N 54°24' E 018°43'0 0.0
2014-Oct-01 12:33N 54°24' E 018°43'0 0.0
2014-Oct-01 11:33N 54°24' E 018°43'0 0.0
2014-Oct-01 10:33N 54°24' E 018°43'0 0.0
2014-Oct-01 09:33N 54°24' E 018°43'0 0.0
2014-Oct-01 08:33N 54°24' E 018°43'0 0.0
2014-Oct-01 07:33N 54°24' E 018°43'0 0.0
2014-Oct-01 06:33N 54°24' E 018°43'5 4.9
2014-Oct-01 05:33N 54°26' E 018°51'1312.9
2014-Oct-01 04:33N 54°36' E 019°04'1312.9
2014-Oct-01 03:34N 54°49' E 019°08'1413.9
2014-Oct-01 02:33N 55°02' E 019°16'1613.7
2014-Oct-01 01:24N 55°17' E 019°24'1213.1
2014-Oct-01 00:28N 55°28' E 019°35'  
2014-Sep-28 12:33N 59°37' E 023°10'1413.9
2014-Sep-28 11:33N 59°40' E 023°37'1514.1
2014-Sep-28 10:32N 59°44' E 024°05'1414.2
2014-Sep-28 09:33N 59°48' E 024°31'9 0.4
2014-Sep-27 12:33N 59°47' E 024°48'1615.5
2014-Sep-27 11:33N 59°43' E 024°18'1515.4
2014-Sep-27 10:33N 59°38' E 023°49'1615.4
2014-Sep-27 09:32N 59°34' E 023°19'  
2014-Sep-25 05:10N 59°21' E 018°08'0 0.0
2014-Sep-25 04:31N 59°21' E 018°08'0 0.0
2014-Sep-25 03:31N 59°21' E 018°08'0 0.0
2014-Sep-25 02:31N 59°21' E 018°08'0 0.0
2014-Sep-25 01:31N 59°21' E 018°08'0 0.0
2014-Sep-25 00:33N 59°21' E 018°08'7 7.5
2014-Sep-24 23:33N 59°22' E 018°22'9411.2
2014-Sep-24 15:11N 59°24' E 021°27'1114.1
2014-Sep-24 14:23N 59°25' E 021°48'4214.1
2014-Sep-24 11:24N 59°37' E 023°08'1214.0
2014-Sep-24 10:33N 59°40' E 023°30'1414.2
2014-Sep-24 09:32N 59°44' E 023°58'1414.3
2014-Sep-24 08:33N 59°48' E 024°25'  
2014-Sep-22 02:33N 59°47' E 024°55'1413.8
2014-Sep-22 01:33N 59°44' E 024°28'1413.9
2014-Sep-22 00:31N 59°40' E 024°01'1414.3
2014-Sep-21 23:33N 59°36' E 023°34'  
Track history (hours):
 
Tides and Currents Weather Stations Pressure Air Temp Water Temp Dewpoint Dewpoint Depression Visibility Wind Speed Wind Dir Waves Ship Positions

Suula

Last reported at 2014-Oct-01 13:33 UTC. Time now 2014-Oct-01 14:20 UTC.
Position N 54°24' E 018°43'.

Length 140 m; draft 6.5 m.

Type: Tanker. MMSI: 230956996.

Date/timePositionNaut miles runAvg speedWind from/ knotsBaromVisibWave heightAir tempDewpointWater temp
2014-Oct-01 13:33N 54°24' E 018°43'0 0.0
2014-Oct-01 12:33N 54°24' E 018°43'0 0.0
2014-Oct-01 11:33N 54°24' E 018°43'0 0.0
2014-Oct-01 10:33N 54°24' E 018°43'0 0.0
2014-Oct-01 09:33N 54°24' E 018°43'0 0.0
2014-Oct-01 08:33N 54°24' E 018°43'0 0.0
2014-Oct-01 07:33N 54°24' E 018°43'0 0.0
2014-Oct-01 06:33N 54°24' E 018°43'5 4.9
2014-Oct-01 05:33N 54°26' E 018°51'1312.9
2014-Oct-01 04:33N 54°36' E 019°04'1312.9
2014-Oct-01 03:34N 54°49' E 019°08'1413.9
2014-Oct-01 02:33N 55°02' E 019°16'1613.7
2014-Oct-01 01:24N 55°17' E 019°24'1213.1
2014-Oct-01 00:28N 55°28' E 019°35'  
2014-Sep-28 12:33N 59°37' E 023°10'1413.9
2014-Sep-28 11:33N 59°40' E 023°37'1514.1
2014-Sep-28 10:32N 59°44' E 024°05'1414.2
2014-Sep-28 09:33N 59°48' E 024°31'9 0.4
2014-Sep-27 12:33N 59°47' E 024°48'1615.5
2014-Sep-27 11:33N 59°43' E 024°18'1515.4
2014-Sep-27 10:33N 59°38' E 023°49'1615.4
2014-Sep-27 09:32N 59°34' E 023°19'  
2014-Sep-25 05:10N 59°21' E 018°08'0 0.0
2014-Sep-25 04:31N 59°21' E 018°08'0 0.0
2014-Sep-25 03:31N 59°21' E 018°08'0 0.0
2014-Sep-25 02:31N 59°21' E 018°08'0 0.0
2014-Sep-25 01:31N 59°21' E 018°08'0 0.0
2014-Sep-25 00:33N 59°21' E 018°08'7 7.5
2014-Sep-24 23:33N 59°22' E 018°22'9411.2
2014-Sep-24 15:11N 59°24' E 021°27'1114.1
2014-Sep-24 14:23N 59°25' E 021°48'4214.1
2014-Sep-24 11:24N 59°37' E 023°08'1214.0
2014-Sep-24 10:33N 59°40' E 023°30'1414.2
2014-Sep-24 09:32N 59°44' E 023°58'1414.3
2014-Sep-24 08:33N 59°48' E 024°25'  
2014-Sep-22 02:33N 59°47' E 024°55'1413.8
2014-Sep-22 01:33N 59°44' E 024°28'1413.9
2014-Sep-22 00:31N 59°40' E 024°01'1414.3
2014-Sep-21 23:33N 59°36' E 023°34'  

Dump ship's entire track history